Redwood City, CA

7:46 AM PST on December 22, 2014 (GMT -0800)
San Carlos | Change Station
CLOSE
Current Station
Airport
Location: San Carlos,
Elevation: 3 ft
Nearby Weather Stations
Active Advisory: Coastal Flood Advisory

Elev 3 ft 37.51 °N, 122.25 °W | Updated 50 minutes ago

Partly Cloudy
Partly Cloudy
54 °F
Feels Like 54 °F
N
0
Wind Variable Wind from North

Today
High -- | Low -- °F
--% Chance of Precip.
Yesterday
High -- | Low -- °F
Precip. -- in
7:20 AM 4:54 PM
New Moon, 0% visible
Pressure 30.28 in
Visibility 10.0 miles
Clouds Scattered Clouds 1400 ft
Dew Point 54 °F
Humidity 100%
Rainfall 0.00 in
Snow Depth Not available.
UV 0 out of 12
Pollen 4.40 out of 12
Air Quality Not available.
Flu Activity Not available.
METAR KSQL 221456Z 00000KT 10SM SCT014 12/12 A3028

More Conditions Fewer Conditions

Pressure 30.28 in
Visibility 10.0 miles
Clouds Scattered Clouds 1400 ft
Dew Point 54 °F
Humidity 100%
Rainfall 0.00 in
Snow Depth Not available.
UV 0 out of 12
Pollen 4.40 out of 12
Air Quality Not available.
Flu Activity Not available.
METAR KSQL 221456Z 00000KT 10SM SCT014 12/12 A3028

More Conditions Fewer Conditions

Nowcast | as of 5:41 am PST on December 22, 2014

Patchy dense fog is affecting portions of the East Bay...North Bay valleys...and Monterey Bay this morning. This fog will continue through mid morning...locally reducing visibility to one quarter mile or less. Motorists are urged to drive with caution as visibility can decrease quickly over short distances.

×

10-Day Weather Forecast

Almanac

Astronomy

Dec. 22, 2014 Rise Set
Actual Time
Civil Twilight
Nautical Twilight
Astronomical Twilight
Moon
Length of Visible Light
Length of Day
Tomorrow will be .
, % of the Moon is Illuminated

Today's Extremes

State Highs State Lows

Community

WunderPhotos

Upload Photos

1,779,620 photos uploaded!

WunderBlogs® & News

Nearby

Air Quality

  Air Quality AQ Index Pollutant
Not available.

Snow Depth

Station Depth Elevation

Earthquake Activity

City Distance Mag. Time & Date
Minimum magnitude displayed is 2.5.

Coastal Water Temperatures

Place Temperature

Nearby Weather Stations